Pagrindinis puslapis
METAR-TAF:

METAR-TAF

Oro uostai :

Wink, Teksasas, Jungtinės Amerikos Valstijos

platuma: 31-46-47N, ilguma: 103-12-05W, Aukštis: 860 m

Dabartinis oras

Ataskaita buvo paskelbta 13 minutes, ne 16:53 UTC
Vėjas 4 kt nuo kintamojo kryptimis
Temperatūra 27°C
Drėgmė 45%
Slėgis 1021 hPa
Matomumas: 11.3 km
Giedras dangus

METAR: KINK 031653Z AUTO VRB04KT 7SM CLR 27/14 A3016 RMK AO2 SLP169 T02720139 $

Laikas: 12:06 (17:06 UTC)

Prognozė

Ataskaita buvo paskelbta 4 valandos ir 9 minutes, ne 12:57 UTC
Prognozė galioja nuo 03 metu 13 UTC su 04 metu 12 UTC
Vėjas 6 kt iš Rytų/Šiaurės Rytų
Matomumas: 10 km
Giedras dangus
Laikinai
nuo 03 metu 13 UTC su 03 metu 15 UTC
Matomumas: 6.4 km
migla

TAF: KINK 031257Z 0313/0412 07006KT P6SM SKC TEMPO 0313/0315 4SM HZ

Orai ataskaitas ir orų prognozės (METAR, TAF).

turimą stotys yra geltonos ir raudonos taškus žemėlapyje.

Perkelti pele per norėdami pamatyti stoties vardą.

Tada spustelėkite, norėdami matyti oro stebėjimo ir prognozės.

Norėdami pakeisti žemėlapį: spustelėkite ant žalios mygtukų su juodo kryžiaus žemyn,; žalią mygtuką su brūkšneliu, jei norite nutolinti; arba žalių rodyklių gretimoms žemėlapius.


METAR-TAF: